Time;durP1;ratioP1;P1;durP2;ratioP2;P2;SDS_P1;SDS_P2;PMS_P1;PMS_P2;Temp;Humidity;BMP_temperature;BMP_pressure;BME280_temperature;BME280_humidity;BME280_pressure;Samples;Min_cycle;Max_cycle;Signal;HPM_P1;HPM_P2
2021/03/20 00:00:42;;;;;;;17.23;6.75;;;0.10;99.90;;;;;;6270709;22;20042;-61
2021/03/20 00:03:08;;;;;;;17.15;7.05;;;0.20;99.90;;;;;;6268729;22;20011;-62
2021/03/20 00:05:34;;;;;;;13.38;6.43;;;0.30;99.90;;;;;;6269326;22;20025;-61
2021/03/20 00:08:00;;;;;;;18.25;7.22;;;0.40;99.90;;;;;;6267201;22;20010;-61
2021/03/20 00:10:26;;;;;;;16.48;5.97;;;0.80;99.90;;;;;;6268147;22;20086;-61
2021/03/20 00:12:53;;;;;;;17.63;6.68;;;0.70;99.90;;;;;;6267248;22;20004;-62
2021/03/20 00:15:23;;;;;;;14.90;6.50;;;0.80;99.90;;;;;;6267645;22;20000;-62
2021/03/20 00:17:50;;;;;;;15.27;6.10;;;0.70;99.90;;;;;;6268868;22;20008;-61
2021/03/20 00:20:20;;;;;;;16.10;5.65;;;0.60;99.90;;;;;;6268699;22;20023;-64
2021/03/20 00:22:46;;;;;;;14.52;6.22;;;0.50;99.90;;;;;;6267901;22;20012;-64
2021/03/20 00:25:12;;;;;;;11.48;4.45;;;0.60;99.90;;;;;;6268479;22;20006;-64
2021/03/20 00:27:38;;;;;;;15.80;4.57;;;0.60;99.90;;;;;;6268640;22;20012;-64
2021/03/20 00:30:05;;;;;;;12.15;4.57;;;0.60;99.90;;;;;;6268358;22;20068;-64
2021/03/20 00:32:31;;;;;;;10.65;4.20;;;0.50;99.90;;;;;;6241044;22;20659;-64
2021/03/20 00:34:57;;;;;;;11.18;4.22;;;0.50;99.90;;;;;;6267689;22;20011;-64
2021/03/20 00:37:23;;;;;;;9.48;3.78;;;0.40;99.90;;;;;;6266487;22;20446;-64
2021/03/20 00:39:49;;;;;;;10.60;4.07;;;0.50;99.90;;;;;;6267009;22;20039;-64
2021/03/20 00:42:15;;;;;;;11.13;4.15;;;0.40;99.90;;;;;;6267751;22;20016;-64
2021/03/20 00:44:41;;;;;;;11.10;3.75;;;0.30;99.90;;;;;;6268315;22;20008;-61
2021/03/20 00:47:06;;;;;;;11.18;4.18;;;0.10;99.90;;;;;;6268557;22;20312;-62
2021/03/20 00:49:32;;;;;;;14.27;4.45;;;-0.20;99.90;;;;;;6240888;22;20028;-61
2021/03/20 00:51:58;;;;;;;14.52;4.70;;;-0.50;99.90;;;;;;6267431;22;20485;-61
2021/03/20 00:54:23;;;;;;;10.15;4.32;;;-0.60;99.90;;;;;;6267041;22;20477;-61
2021/03/20 00:56:49;;;;;;;13.27;4.47;;;-0.80;99.90;;;;;;6267667;22;20034;-61
2021/03/20 00:59:15;;;;;;;12.15;4.40;;;-0.70;99.90;;;;;;6268603;22;20018;-64
2021/03/20 01:01:40;;;;;;;11.00;3.92;;;-0.60;99.90;;;;;;6267352;22;20038;-64
2021/03/20 01:04:06;;;;;;;13.23;3.78;;;-0.50;99.90;;;;;;6268979;22;20090;-64
2021/03/20 01:06:32;;;;;;;10.77;3.83;;;-0.50;99.90;;;;;;6268084;22;20011;-64
2021/03/20 01:08:59;;;;;;;13.90;3.55;;;-0.40;99.90;;;;;;6268256;22;20010;-64
2021/03/20 01:11:27;;;;;;;10.60;3.72;;;-0.60;99.90;;;;;;6270121;22;20011;-61
2021/03/20 01:13:54;;;;;;;9.82;3.00;;;-0.60;99.90;;;;;;6268547;22;20003;-61
2021/03/20 01:16:20;;;;;;;11.18;4.00;;;-0.60;99.90;;;;;;6270195;22;20014;-61
2021/03/20 01:18:46;;;;;;;8.35;3.20;;;-0.70;99.90;;;;;;6268890;22;20011;-64
2021/03/20 01:21:12;;;;;;;7.88;3.03;;;-0.80;99.90;;;;;;6269305;22;20436;-61
2021/03/20 01:23:39;;;;;;;10.07;3.35;;;-1.10;99.90;;;;;;6269253;22;20069;-63
2021/03/20 01:26:06;;;;;;;10.35;2.85;;;-1.10;99.90;;;;;;6242503;22;20424;-63
2021/03/20 01:28:33;;;;;;;8.77;2.75;;;-0.80;99.90;;;;;;6269822;22;20013;-63
2021/03/20 01:31:00;;;;;;;11.93;3.40;;;-0.80;99.90;;;;;;6268072;22;20432;-63
2021/03/20 01:33:26;;;;;;;7.32;2.60;;;-0.70;99.90;;;;;;6269989;22;20492;-63
2021/03/20 01:35:53;;;;;;;9.13;3.13;;;-0.60;99.90;;;;;;6268580;22;20014;-63
2021/03/20 01:38:19;;;;;;;7.90;2.80;;;-0.60;99.90;;;;;;6267521;22;20007;-63
2021/03/20 01:40:55;;;;;;;9.18;3.38;;;-0.60;99.90;;;;;;6268992;22;20008;-63
2021/03/20 01:43:23;;;;;;;9.48;2.80;;;-0.60;99.90;;;;;;6268770;22;20015;-62
2021/03/20 01:45:49;;;;;;;7.75;3.05;;;-0.70;99.90;;;;;;6268610;22;20003;-63
2021/03/20 01:48:33;;;;;;;7.38;2.88;;;-0.80;99.90;;;;;;6269450;22;20681;-62
2021/03/20 01:51:02;;;;;;;8.90;3.22;;;-0.80;99.90;;;;;;6268105;22;20008;-62
2021/03/20 01:53:43;;;;;;;10.40;3.10;;;-0.90;99.90;;;;;;6269341;22;20011;-64
2021/03/20 01:56:18;;;;;;;10.65;2.80;;;-1.00;99.90;;;;;;6268860;22;19996;-64
2021/03/20 01:58:46;;;;;;;7.53;3.15;;;-1.00;99.90;;;;;;6268920;22;20042;-64
2021/03/20 02:01:22;;;;;;;9.20;3.15;;;-0.90;99.90;;;;;;6269290;22;20240;-63
2021/03/20 02:03:48;;;;;;;7.55;2.90;;;-1.00;99.90;;;;;;6268573;22;20038;-64
2021/03/20 02:06:14;;;;;;;10.00;3.00;;;-1.10;99.90;;;;;;6268564;22;20008;-64
2021/03/20 02:08:42;;;;;;;6.88;2.70;;;-1.20;99.90;;;;;;6268601;22;20692;-64
2021/03/20 02:11:48;;;;;;;8.25;2.85;;;-1.20;99.90;;;;;;6270100;22;20008;-64
2021/03/20 02:14:29;;;;;;;10.07;3.22;;;-1.20;99.90;;;;;;6229081;22;20669;-64
2021/03/20 02:17:07;;;;;;;8.88;2.80;;;-1.10;99.90;;;;;;6268891;22;20524;-64
2021/03/20 02:19:54;;;;;;;8.73;2.88;;;-1.10;99.90;;;;;;6269017;22;20094;-64
2021/03/20 02:22:33;;;;;;;10.18;3.42;;;-1.40;99.90;;;;;;6269327;22;20015;-64
2021/03/20 02:25:30;;;;;;;10.97;3.27;;;-1.40;99.90;;;;;;6242037;22;20336;-64
2021/03/20 02:28:30;;;;;;;9.25;2.97;;;-1.70;99.90;;;;;;6269138;22;20012;-62
2021/03/20 02:31:20;;;;;;;10.15;3.08;;;-1.90;99.90;;;;;;6268532;22;20011;-62
2021/03/20 02:34:04;;;;;;;;;;;-2.00;99.90;;;;;;6236166;23;20016;-64
2021/03/20 02:36:33;;;;;;;7.53;2.70;;;-2.00;99.90;;;;;;6238764;22;19918;-64
2021/03/20 02:39:22;;;;;;;10.13;2.60;;;-1.90;99.90;;;;;;6234994;23;20004;-64
2021/03/20 02:42:05;;;;;;;9.07;2.58;;;-1.90;99.90;;;;;;6238184;22;20016;-64
2021/03/20 02:44:55;;;;;;;7.78;2.90;;;-2.00;99.90;;;;;;6238235;22;20301;-62
2021/03/20 02:47:37;;;;;;;9.20;3.03;;;-2.00;99.90;;;;;;6238732;22;20008;-61
2021/03/20 02:50:09;;;;;;;9.13;3.10;;;-2.10;99.90;;;;;;6237287;23;20324;-64
2021/03/20 02:52:59;;;;;;;9.43;3.08;;;-1.80;99.90;;;;;;6237821;23;20012;-64
2021/03/20 02:55:30;;;;;;;8.25;2.78;;;-2.10;99.90;;;;;;6238120;22;20011;-64
2021/03/20 02:58:18;;;;;;;10.73;3.58;;;-1.70;99.90;;;;;;6237911;22;20019;-63
2021/03/20 03:00:52;;;;;;;9.23;3.00;;;-1.50;99.90;;;;;;6235224;23;20093;-64
2021/03/20 03:03:21;;;;;;;8.65;2.95;;;-1.30;99.90;;;;;;6238866;22;20019;-64
2021/03/20 03:05:55;;;;;;;10.82;3.00;;;-1.20;99.90;;;;;;6237486;23;20008;-64
2021/03/20 03:08:31;;;;;;;7.25;2.42;;;-1.10;99.90;;;;;;6238665;23;20078;-64
2021/03/20 03:11:05;;;;;;;8.88;2.85;;;-1.00;99.90;;;;;;6237708;22;20075;-64
2021/03/20 03:13:36;;;;;;;8.00;2.72;;;-1.20;99.90;;;;;;6237993;23;19996;-64
2021/03/20 03:16:09;;;;;;;10.95;3.42;;;-1.20;99.90;;;;;;6237733;23;20008;-64
2021/03/20 03:18:54;;;;;;;8.50;2.72;;;-1.30;99.90;;;;;;6239172;23;20011;-64
2021/03/20 03:21:21;;;;;;;8.00;2.83;;;-1.10;99.90;;;;;;6241973;23;20000;-64
2021/03/20 03:23:46;;;;;;;10.50;3.25;;;-1.20;99.90;;;;;;6240259;23;20008;-64
2021/03/20 03:26:19;;;;;;;6.70;2.42;;;-1.20;99.90;;;;;;6242242;23;20008;-64
2021/03/20 03:28:49;;;;;;;9.50;3.20;;;-1.20;99.90;;;;;;6240615;23;20019;-64
2021/03/20 03:31:44;;;;;;;9.20;2.88;;;-1.20;99.90;;;;;;6241804;22;20000;-64
2021/03/20 03:34:18;;;;;;;8.43;2.95;;;-1.50;99.90;;;;;;6261370;22;20019;-64
2021/03/20 03:37:10;;;;;;;7.63;3.05;;;-1.70;99.90;;;;;;6272275;22;20000;-62
2021/03/20 03:39:44;;;;;;;9.85;3.00;;;-1.80;99.90;;;;;;6271581;22;20011;-64
2021/03/20 03:42:17;;;;;;;9.00;3.03;;;-1.90;99.90;;;;;;6272369;22;20022;-63
2021/03/20 03:44:45;;;;;;;8.73;3.28;;;-2.00;99.90;;;;;;6271759;22;20024;-64
2021/03/20 03:47:24;;;;;;;9.98;2.97;;;-2.20;99.90;;;;;;6273894;22;20007;-64
2021/03/20 03:49:54;;;;;;;10.48;3.15;;;-2.00;99.90;;;;;;6273332;22;20000;-63
2021/03/20 03:52:19;;;;;;;8.55;3.05;;;-2.00;99.90;;;;;;6273611;22;19999;-64
2021/03/20 03:54:45;;;;;;;11.65;3.47;;;-1.80;99.90;;;;;;6272944;22;20056;-64
2021/03/20 03:57:33;;;;;;;10.52;3.10;;;-1.70;99.90;;;;;;6274004;22;20014;-63
2021/03/20 04:00:23;;;;;;;8.32;3.28;;;-1.80;99.90;;;;;;6272732;22;19999;-64
2021/03/20 04:03:17;;;;;;;12.38;3.58;;;-1.80;99.90;;;;;;6273187;22;20022;-64
2021/03/20 04:05:49;;;;;;;9.52;3.00;;;-1.90;99.90;;;;;;6246435;22;20084;-64
2021/03/20 04:08:29;;;;;;;12.93;3.28;;;-1.80;99.90;;;;;;6273609;22;20000;-64
2021/03/20 04:11:00;;;;;;;10.25;3.60;;;-1.80;99.90;;;;;;6245421;22;20344;-64
2021/03/20 04:14:11;;;;;;;11.25;3.47;;;-1.90;99.90;;;;;;6273386;22;20000;-64
2021/03/20 04:16:48;;;;;;;12.73;3.35;;;-1.80;99.90;;;;;;6272191;22;20008;-64
2021/03/20 04:19:20;;;;;;;10.00;3.40;;;-1.80;99.90;;;;;;6273116;22;20008;-64
2021/03/20 04:22:02;;;;;;;9.48;2.60;;;-2.00;99.90;;;;;;6272630;22;20008;-64
2021/03/20 04:24:45;;;;;;;9.45;3.15;;;-2.00;99.90;;;;;;6273291;22;20340;-64
2021/03/20 04:27:12;;;;;;;8.23;2.97;;;-2.20;99.90;;;;;;6273254;22;20012;-64
2021/03/20 04:29:52;;;;;;;8.68;3.05;;;-2.30;99.90;;;;;;6272664;22;20006;-64
2021/03/20 04:32:23;;;;;;;9.93;2.72;;;-2.50;99.90;;;;;;6273171;22;20016;-64
2021/03/20 04:34:56;;;;;;;9.30;2.95;;;-2.50;99.90;;;;;;6273020;22;20012;-64
2021/03/20 04:37:30;;;;;;;12.10;3.53;;;-2.40;99.90;;;;;;6272727;22;20003;-64
2021/03/20 04:39:57;;;;;;;10.27;3.30;;;-2.40;99.90;;;;;;6272589;22;20010;-64
2021/03/20 04:42:36;;;;;;;11.00;3.58;;;-2.40;99.90;;;;;;6273222;22;20082;-62
2021/03/20 04:45:14;;;;;;;11.55;4.00;;;-2.50;99.90;;;;;;6272518;22;20053;-62
2021/03/20 04:47:41;;;;;;;9.02;3.50;;;-2.50;99.90;;;;;;6272604;22;20078;-64
2021/03/20 04:50:18;;;;;;;11.02;3.42;;;-2.30;99.90;;;;;;6245539;22;20309;-63
2021/03/20 04:52:46;;;;;;;9.73;3.30;;;-2.30;99.90;;;;;;6272385;22;20004;-62
2021/03/20 04:55:13;;;;;;;9.23;3.40;;;-2.50;99.90;;;;;;6273610;22;20004;-63
2021/03/20 04:58:01;;;;;;;12.85;3.63;;;-2.50;99.90;;;;;;6272166;22;20512;-63
2021/03/20 05:00:56;;;;;;;9.77;3.40;;;-2.70;99.90;;;;;;6271741;22;20439;-62
2021/03/20 05:03:28;;;;;;;11.07;3.45;;;-2.60;99.90;;;;;;6273067;22;20094;-62
2021/03/20 05:06:00;;;;;;;8.70;3.60;;;-2.60;99.90;;;;;;6272192;22;19999;-63
2021/03/20 05:08:34;;;;;;;12.68;3.63;;;-2.40;99.90;;;;;;6273610;22;20331;-64
2021/03/20 05:11:08;;;;;;;10.68;4.25;;;-2.20;99.90;;;;;;6245310;22;20424;-63
2021/03/20 05:13:47;;;;;;;10.10;3.42;;;-2.10;99.90;;;;;;6273066;22;20007;-62
2021/03/20 05:16:18;;;;;;;13.85;4.10;;;-2.10;99.90;;;;;;6273536;22;20083;-63
2021/03/20 05:18:45;;;;;;;9.48;3.60;;;-2.00;99.90;;;;;;6272896;22;20331;-63
2021/03/20 05:21:13;;;;;;;9.23;3.40;;;-2.10;99.90;;;;;;6244661;22;20039;-64
2021/03/20 05:23:39;;;;;;;8.55;3.25;;;-2.30;99.90;;;;;;6273253;22;20011;-64
2021/03/20 05:26:04;;;;;;;9.88;3.63;;;-2.50;99.90;;;;;;6271786;22;19999;-63
2021/03/20 05:28:31;;;;;;;11.30;3.83;;;-2.70;99.90;;;;;;6272549;22;20008;-64
2021/03/20 05:31:00;;;;;;;11.15;3.38;;;-2.80;99.90;;;;;;6271028;22;20003;-64
2021/03/20 05:33:26;;;;;;;11.07;3.38;;;-3.00;99.90;;;;;;6272563;22;20026;-64
2021/03/20 05:35:52;;;;;;;15.05;3.25;;;-3.10;99.90;;;;;;6271683;22;20447;-63
2021/03/20 05:38:17;;;;;;;9.85;3.70;;;-3.10;99.90;;;;;;6273064;22;20004;-63
2021/03/20 05:40:43;;;;;;;13.70;3.60;;;-3.10;99.90;;;;;;6273647;22;20294;-63
2021/03/20 05:43:31;;;;;;;10.45;3.65;;;-3.20;99.90;;;;;;6272256;22;20069;-63
2021/03/20 05:46:13;;;;;;;9.70;3.70;;;-3.20;99.90;;;;;;6272588;22;20057;-63
2021/03/20 05:48:53;;;;;;;9.02;3.45;;;-3.20;99.90;;;;;;6273755;22;20004;-63
2021/03/20 05:51:19;;;;;;;10.98;3.70;;;-3.10;99.90;;;;;;6272945;22;20035;-63
2021/03/20 05:54:18;;;;;;;10.52;3.83;;;-3.00;99.90;;;;;;6273132;22;20181;-63
2021/03/20 05:57:09;;;;;;;10.70;3.70;;;-2.90;99.90;;;;;;6272957;22;20012;-63
2021/03/20 05:59:56;;;;;;;10.48;4.72;;;-2.90;99.90;;;;;;6245515;22;20004;-63
2021/03/20 06:02:47;;;;;;;9.98;3.53;;;-2.90;99.90;;;;;;6245911;22;20060;-63
2021/03/20 06:05:32;;;;;;;11.23;4.32;;;-2.90;99.90;;;;;;6272682;22;20346;-64
2021/03/20 06:08:09;;;;;;;11.68;4.07;;;-2.80;99.90;;;;;;6272068;22;20012;-64
2021/03/20 06:10:55;;;;;;;13.23;4.03;;;-2.70;99.90;;;;;;6271015;22;20010;-64
2021/03/20 06:13:48;;;;;;;12.18;3.67;;;-2.60;99.90;;;;;;6244625;22;20006;-64
2021/03/20 06:16:24;;;;;;;13.07;5.00;;;-2.50;99.90;;;;;;6245486;22;20008;-63
2021/03/20 06:19:27;;;;;;;10.18;3.53;;;-2.50;99.90;;;;;;6273008;22;20007;-63
2021/03/20 06:22:40;;;;;;;14.13;3.95;;;-2.50;99.90;;;;;;6272032;22;20010;-63
2021/03/20 06:25:33;;;;;;;13.82;4.35;;;-2.40;99.90;;;;;;6267983;22;20106;-63
2021/03/20 06:27:59;;;;;;;11.95;4.00;;;-2.50;99.90;;;;;;6269762;22;20011;-63
2021/03/20 06:30:31;;;;;;;14.88;4.40;;;-2.40;99.90;;;;;;6269271;22;20010;-63
2021/03/20 06:33:13;;;;;;;12.95;4.35;;;-2.30;99.90;;;;;;6241159;22;20343;-64
2021/03/20 06:35:47;;;;;;;11.88;4.57;;;-2.10;99.90;;;;;;6271659;22;20015;-64
2021/03/20 06:38:22;;;;;;;12.98;4.60;;;-1.90;99.90;;;;;;6271891;22;20369;-63
2021/03/20 06:41:07;;;;;;;11.13;4.50;;;-1.80;99.90;;;;;;6271443;22;20092;-64
2021/03/20 06:43:37;;;;;;;9.80;4.13;;;-1.60;99.90;;;;;;6271752;22;20007;-64
2021/03/20 06:46:03;;;;;;;13.73;3.85;;;-1.30;99.90;;;;;;6269879;22;20015;-63
2021/03/20 06:48:31;;;;;;;14.63;4.43;;;-1.00;99.90;;;;;;6243670;22;20093;-64
2021/03/20 06:50:58;;;;;;;10.05;4.32;;;-0.90;99.90;;;;;;6271399;22;20038;-64
2021/03/20 06:53:55;;;;;;;9.65;3.67;;;-0.70;99.90;;;;;;6273836;22;20002;-64
2021/03/20 06:56:21;;;;;;;11.95;4.43;;;-0.40;99.90;;;;;;6237636;22;20016;-64
2021/03/20 06:58:47;;;;;;;12.68;4.30;;;-0.30;99.90;;;;;;6274753;22;20086;-63
2021/03/20 07:01:25;;;;;;;12.20;4.60;;;0.00;99.90;;;;;;6274338;22;20020;-63
2021/03/20 07:04:12;;;;;;;13.10;4.68;;;0.00;99.90;;;;;;6275591;22;20011;-64
2021/03/20 07:07:15;;;;;;;12.65;4.55;;;-0.20;99.90;;;;;;6274689;22;20039;-64
2021/03/20 07:09:42;;;;;;;11.02;4.10;;;-0.10;99.90;;;;;;6273300;22;20010;-64
2021/03/20 07:12:19;;;;;;;9.70;3.78;;;0.30;99.90;;;;;;6271551;22;20045;-65
2021/03/20 07:14:49;;;;;;;9.88;4.03;;;0.50;99.90;;;;;;6247357;22;20015;-64
2021/03/20 07:17:37;;;;;;;11.35;4.40;;;0.30;99.90;;;;;;6273148;22;20082;-64
2021/03/20 07:20:11;;;;;;;9.63;4.38;;;0.30;99.90;;;;;;6271694;22;20080;-64
2021/03/20 07:22:44;;;;;;;9.65;4.40;;;0.30;99.90;;;;;;6272993;22;20085;-65
2021/03/20 07:25:30;;;;;;;13.65;4.80;;;0.60;99.90;;;;;;6246997;22;20010;-65
2021/03/20 07:28:09;;;;;;;9.48;3.72;;;0.80;99.90;;;;;;6272720;22;20042;-65
2021/03/20 07:30:43;;;;;;;11.93;4.63;;;1.00;99.90;;;;;;6274566;22;20105;-63
2021/03/20 07:33:40;;;;;;;13.32;3.97;;;1.20;99.90;;;;;;6273978;22;20500;-65
2021/03/20 07:36:24;;;;;;;9.32;3.85;;;1.30;99.90;;;;;;6256014;22;20007;-65
2021/03/20 07:39:23;;;;;;;11.18;3.90;;;1.00;99.90;;;;;;6275586;22;20109;-65
2021/03/20 07:42:01;;;;;;;12.90;4.10;;;1.70;99.90;;;;;;6275885;22;20042;-65
2021/03/20 07:44:30;;;;;;;11.80;4.25;;;1.50;99.90;;;;;;6274770;22;20085;-63
2021/03/20 07:46:56;;;;;;;9.35;3.60;;;1.70;99.90;;;;;;6274248;22;20053;-63
2021/03/20 07:49:24;;;;;;;11.30;4.13;;;2.00;99.90;;;;;;6274702;22;20004;-64
2021/03/20 07:52:00;;;;;;;11.63;4.28;;;2.10;99.90;;;;;;6275409;22;19999;-63
2021/03/20 07:54:37;;;;;;;9.45;3.60;;;1.80;99.90;;;;;;6275748;22;20008;-62
2021/03/20 07:57:12;;;;;;;13.25;4.45;;;2.30;99.90;;;;;;6274932;22;20012;-62
2021/03/20 07:59:48;;;;;;;8.80;3.55;;;2.00;99.90;;;;;;6275275;22;19996;-62
2021/03/20 08:02:39;;;;;;;11.90;3.88;;;2.50;99.90;;;;;;6247312;22;20019;-63
2021/03/20 08:05:12;;;;;;;9.52;3.75;;;2.60;99.90;;;;;;6273247;22;20006;-63
2021/03/20 08:07:46;;;;;;;11.15;3.60;;;2.60;99.90;;;;;;6272470;22;20370;-61
2021/03/20 08:10:20;;;;;;;12.82;3.90;;;2.60;99.90;;;;;;6272646;22;20000;-63
2021/03/20 08:12:57;;;;;;;9.80;3.88;;;2.60;99.90;;;;;;6273968;22;20007;-63
2021/03/20 08:15:27;;;;;;;10.73;4.28;;;2.90;99.90;;;;;;6273464;22;20331;-63
2021/03/20 08:17:54;;;;;;;11.00;4.60;;;2.70;99.90;;;;;;6273341;22;20006;-62
2021/03/20 08:20:21;;;;;;;10.23;3.92;;;3.40;99.90;;;;;;6246792;22;20091;-63
2021/03/20 08:23:06;;;;;;;10.35;4.15;;;3.70;99.90;;;;;;6273675;22;20015;-63
2021/03/20 08:25:52;;;;;;;11.25;4.43;;;3.60;99.90;;;;;;6273848;22;20355;-63
2021/03/20 08:28:32;;;;;;;9.77;4.15;;;3.50;99.90;;;;;;6243463;22;20420;-63
2021/03/20 08:31:22;;;;;;;10.00;3.58;;;3.40;99.90;;;;;;6271242;22;20011;-63
2021/03/20 08:34:06;;;;;;;9.55;4.10;;;4.10;99.90;;;;;;6270894;22;20019;-63
2021/03/20 08:36:39;;;;;;;9.18;3.38;;;3.30;99.90;;;;;;6272588;22;20071;-63
2021/03/20 08:39:25;;;;;;;15.10;4.60;;;3.60;99.90;;;;;;6271779;22;20004;-65
2021/03/20 08:42:02;;;;;;;7.82;3.42;;;3.80;99.90;;;;;;6272740;22;19999;-63
2021/03/20 08:44:53;;;;;;;11.18;2.95;;;4.50;99.90;;;;;;6273699;22;20008;-63
2021/03/20 08:47:56;;;;;;;8.02;3.10;;;4.70;99.90;;;;;;6272719;22;20000;-61
2021/03/20 08:50:36;;;;;;;8.57;3.17;;;4.80;99.90;;;;;;6272417;22;20008;-61
2021/03/20 08:53:08;;;;;;;;;;;5.10;99.90;;;;;;6273800;22;19999;-64
2021/03/20 08:55:53;;;;;;;9.43;3.15;;;5.00;99.90;;;;;;6273562;22;19903;-64
2021/03/20 08:58:52;;;;;;;7.70;3.03;;;5.60;99.90;;;;;;6268009;22;20093;-64
2021/03/20 09:01:39;;;;;;;8.10;3.08;;;5.70;99.90;;;;;;6242110;22;20069;-64
2021/03/20 09:04:17;;;;;;;7.45;3.15;;;6.90;99.00;;;;;;6242018;22;20019;-64
2021/03/20 09:06:47;;;;;;;9.32;3.10;;;8.00;97.10;;;;;;6242712;22;20420;-64
2021/03/20 09:09:20;;;;;;;7.72;2.58;;;9.10;96.30;;;;;;6268781;22;20076;-63
2021/03/20 09:11:55;;;;;;;12.23;2.92;;;9.40;92.90;;;;;;6269664;22;20018;-64
2021/03/20 09:14:29;;;;;;;7.05;2.78;;;9.40;83.70;;;;;;6242065;22;20462;-64
2021/03/20 09:17:20;;;;;;;7.70;2.50;;;8.60;87.00;;;;;;6267984;22;20027;-64
2021/03/20 09:20:10;;;;;;;5.80;2.38;;;8.40;89.40;;;;;;6263736;22;20012;-64
2021/03/20 09:22:42;;;;;;;8.60;2.88;;;9.10;80.60;;;;;;6270576;22;20019;-63
2021/03/20 09:25:27;;;;;;;7.85;2.30;;;9.00;84.80;;;;;;6268144;22;19995;-64
2021/03/20 09:28:14;;;;;;;7.25;2.28;;;10.50;85.10;;;;;;6269281;22;20577;-64
2021/03/20 09:30:53;;;;;;;6.57;2.58;;;10.10;77.60;;;;;;6265503;22;19995;-64
2021/03/20 09:33:28;;;;;;;7.23;2.50;;;8.70;81.70;;;;;;6268194;22;20221;-65
2021/03/20 09:35:55;;;;;;;7.88;2.80;;;7.90;88.10;;;;;;6269803;22;20328;-64
2021/03/20 09:38:36;;;;;;;5.78;2.10;;;8.10;80.90;;;;;;6241722;22;20069;-64
2021/03/20 09:41:14;;;;;;;6.60;2.25;;;7.80;78.10;;;;;;6243174;22;20003;-64
2021/03/20 09:43:50;;;;;;;7.82;2.40;;;8.60;69.20;;;;;;6270169;22;20014;-64
2021/03/20 09:46:49;;;;;;;6.53;1.85;;;8.00;69.00;;;;;;6270694;22;20000;-64
2021/03/20 09:49:18;;;;;;;7.72;2.20;;;8.50;73.90;;;;;;6263984;22;20008;-64
2021/03/20 09:51:58;;;;;;;6.88;2.15;;;9.30;71.00;;;;;;6271950;22;20003;-64
2021/03/20 09:57:17;;;;;;;7.55;2.60;;;7.40;74.10;;;;;;6272765;22;20040;-65
2021/03/20 09:59:43;;;;;;;5.43;1.90;;;6.40;74.00;;;;;;6271801;22;19996;-63
2021/03/20 10:02:21;;;;;;;7.43;2.35;;;7.30;76.30;;;;;;6271537;22;20012;-63
2021/03/20 10:04:56;;;;;;;6.05;2.10;;;7.60;77.40;;;;;;6271844;22;20000;-63
2021/03/20 10:07:21;;;;;;;9.07;2.08;;;8.00;73.20;;;;;;6272793;22;20031;-63
2021/03/20 10:09:59;;;;;;;6.82;2.38;;;8.30;70.10;;;;;;6272593;22;20007;-63
2021/03/20 10:12:29;;;;;;;6.93;2.40;;;8.10;70.10;;;;;;6270917;22;20007;-63
2021/03/20 10:15:05;;;;;;;5.57;1.80;;;8.40;67.80;;;;;;6272017;22;20006;-63
2021/03/20 10:17:35;;;;;;;8.40;2.35;;;7.70;65.40;;;;;;6272328;22;20025;-64
2021/03/20 10:20:18;;;;;;;4.10;1.58;;;6.80;62.00;;;;;;6271601;22;20011;-63
2021/03/20 10:23:08;;;;;;;5.50;1.73;;;8.30;62.50;;;;;;6272086;22;20444;-64
2021/03/20 10:25:35;;;;;;;6.18;1.75;;;7.40;61.10;;;;;;6272414;22;20007;-64
2021/03/20 10:28:03;;;;;;;6.88;1.90;;;7.60;60.80;;;;;;6272204;22;20016;-64
2021/03/20 10:30:32;;;;;;;5.82;1.77;;;7.70;58.50;;;;;;6271235;22;20450;-63
2021/03/20 10:33:07;;;;;;;6.53;2.40;;;7.90;60.20;;;;;;6271996;22;20008;-62
2021/03/20 10:35:36;;;;;;;6.55;2.40;;;8.50;67.10;;;;;;6271820;22;20003;-64
2021/03/20 10:38:34;;;;;;;5.95;2.00;;;8.90;64.30;;;;;;6272246;22;20004;-65
2021/03/20 10:41:08;;;;;;;6.78;2.28;;;8.60;57.50;;;;;;6253293;22;20424;-65
2021/03/20 10:43:44;;;;;;;6.28;2.10;;;8.70;63.50;;;;;;6272036;22;20007;-65
2021/03/20 10:46:20;;;;;;;11.13;2.30;;;8.40;63.10;;;;;;6271091;22;20332;-65
2021/03/20 10:48:47;;;;;;;6.85;2.25;;;8.90;68.10;;;;;;6271635;22;20371;-62
2021/03/20 10:51:14;;;;;;;6.80;2.60;;;7.70;63.40;;;;;;6270793;22;20004;-64
2021/03/20 10:53:44;;;;;;;5.88;2.00;;;7.40;64.40;;;;;;6271341;22;20011;-63
2021/03/20 10:56:28;;;;;;;6.68;2.08;;;7.80;66.40;;;;;;6269641;22;20061;-65
2021/03/20 10:58:54;;;;;;;8.60;2.72;;;7.00;65.90;;;;;;6271700;22;20008;-64
2021/03/20 11:01:31;;;;;;;8.00;2.28;;;6.90;65.70;;;;;;6269643;22;20117;-64
2021/03/20 11:03:57;;;;;;;6.60;2.15;;;7.00;66.70;;;;;;6271631;22;20008;-62
2021/03/20 11:06:24;;;;;;;6.88;2.42;;;7.60;68.60;;;;;;6270555;22;19995;-65
2021/03/20 11:09:05;;;;;;;9.93;2.58;;;8.30;62.20;;;;;;6271774;22;20332;-65
2021/03/20 11:11:34;;;;;;;6.40;2.17;;;8.60;60.80;;;;;;6269988;22;20011;-64
2021/03/20 11:14:11;;;;;;;6.65;2.15;;;8.20;58.60;;;;;;6271819;22;20000;-62
2021/03/20 11:17:14;;;;;;;7.10;2.55;;;7.90;56.10;;;;;;6271043;22;20004;-64
2021/03/20 11:19:41;;;;;;;6.38;2.08;;;7.60;58.80;;;;;;6253949;22;20014;-64
2021/03/20 11:22:30;;;;;;;7.10;2.30;;;7.20;56.80;;;;;;6243316;22;20012;-64
2021/03/20 11:24:58;;;;;;;5.50;2.08;;;6.80;55.30;;;;;;6271132;22;20103;-63
2021/03/20 11:27:30;;;;;;;6.55;2.28;;;9.00;57.20;;;;;;6270197;22;20015;-63
2021/03/20 11:30:12;;;;;;;5.47;2.10;;;10.30;55.80;;;;;;6270180;22;20015;-64
2021/03/20 11:32:43;;;;;;;6.93;2.25;;;10.80;54.90;;;;;;6271333;22;19999;-65
2021/03/20 11:35:40;;;;;;;5.78;1.98;;;12.30;50.80;;;;;;6270051;22;20331;-65
2021/03/20 11:38:10;;;;;;;4.70;1.90;;;13.10;47.90;;;;;;6245440;22;20087;-65
2021/03/20 11:40:42;;;;;;;6.38;2.00;;;13.20;49.20;;;;;;6273517;22;20010;-62
2021/03/20 11:43:28;;;;;;;5.43;1.98;;;11.90;48.90;;;;;;6272433;22;20087;-62
2021/03/20 11:46:07;;;;;;;7.45;2.35;;;11.30;46.50;;;;;;6245938;22;20034;-62
2021/03/20 11:48:50;;;;;;;6.40;2.17;;;10.90;46.80;;;;;;6273528;22;20341;-64
2021/03/20 11:51:23;;;;;;;6.97;2.20;;;10.10;48.50;;;;;;6271942;22;20015;-61
2021/03/20 11:53:55;;;;;;;7.20;2.40;;;10.10;49.10;;;;;;6274391;22;20011;-63
2021/03/20 11:56:30;;;;;;;7.05;2.42;;;10.70;47.10;;;;;;6273044;22;20061;-64
2021/03/20 11:58:58;;;;;;;10.30;3.15;;;11.70;51.50;;;;;;6272957;22;20087;-64
2021/03/20 12:01:28;;;;;;;6.25;2.22;;;12.00;47.90;;;;;;6272396;22;20007;-64
2021/03/20 12:03:56;;;;;;;8.03;3.00;;;11.60;50.80;;;;;;6273298;22;20093;-64
2021/03/20 12:06:25;;;;;;;8.52;2.88;;;12.30;48.00;;;;;;6271278;22;20380;-64
2021/03/20 12:09:12;;;;;;;6.85;2.50;;;12.90;47.40;;;;;;6271766;22;20050;-65
2021/03/20 12:11:44;;;;;;;12.25;3.95;;;11.40;45.90;;;;;;6236755;23;20008;-63
2021/03/20 12:14:34;;;;;;;7.97;2.63;;;12.00;47.20;;;;;;6234196;23;20075;-63
2021/03/20 12:17:08;;;;;;;7.18;2.50;;;12.00;46.20;;;;;;6214156;23;20513;-63
2021/03/20 12:19:51;;;;;;;9.57;2.80;;;13.10;49.20;;;;;;6238956;23;20371;-63
2021/03/20 12:22:29;;;;;;;8.75;2.70;;;13.70;43.80;;;;;;6235348;23;20019;-64
2021/03/20 12:25:04;;;;;;;6.90;2.47;;;12.20;45.60;;;;;;6237830;23;20008;-62
2021/03/20 12:27:38;;;;;;;7.57;3.72;;;13.60;44.00;;;;;;6237786;23;20425;-63
2021/03/20 12:30:27;;;;;;;7.10;2.90;;;13.60;45.80;;;;;;6238523;23;20027;-63
2021/03/20 12:33:15;;;;;;;7.80;3.10;;;13.80;44.90;;;;;;6239030;23;20015;-63
2021/03/20 12:35:43;;;;;;;7.55;2.58;;;13.60;44.00;;;;;;6239437;23;20012;-63
2021/03/20 12:38:13;;;;;;;6.32;2.47;;;14.10;42.30;;;;;;6236565;23;20027;-63
2021/03/20 12:40:59;;;;;;;8.93;2.88;;;14.10;40.70;;;;;;6237747;23;20036;-62
2021/03/20 12:43:35;;;;;;;7.35;2.78;;;13.30;41.10;;;;;;6207220;23;20095;-63
2021/03/20 12:46:11;;;;;;;8.88;2.92;;;13.80;43.10;;;;;;6238195;23;20232;-63
2021/03/20 12:48:41;;;;;;;8.13;2.83;;;14.60;44.40;;;;;;6253658;22;20117;-64
2021/03/20 12:51:19;;;;;;;7.22;2.15;;;14.30;41.90;;;;;;6271939;22;20004;-62
2021/03/20 12:53:45;;;;;;;9.35;2.75;;;12.80;42.70;;;;;;6272308;22;20082;-63
2021/03/20 12:56:10;;;;;;;8.75;2.67;;;12.80;43.10;;;;;;6271181;22;20538;-63
2021/03/20 12:58:36;;;;;;;9.00;3.00;;;13.00;42.90;;;;;;6272477;22;20022;-63
2021/03/20 13:01:02;;;;;;;6.93;2.05;;;11.70;44.70;;;;;;6272146;22;20004;-63
2021/03/20 13:03:32;;;;;;;7.45;2.90;;;12.30;45.90;;;;;;6270489;22;20015;-63
2021/03/20 13:05:57;;;;;;;8.18;2.58;;;12.30;44.30;;;;;;6271568;22;20006;-63
2021/03/20 13:08:23;;;;;;;6.85;2.42;;;11.50;44.60;;;;;;6271136;22;20090;-63
2021/03/20 13:10:48;;;;;;;7.10;2.63;;;11.40;46.90;;;;;;6270646;22;20023;-62
2021/03/20 13:13:14;;;;;;;7.45;2.83;;;12.20;45.00;;;;;;6270068;22;20207;-62
2021/03/20 13:15:40;;;;;;;6.50;2.30;;;11.90;46.60;;;;;;6271501;22;20078;-62
2021/03/20 13:18:06;;;;;;;8.00;2.88;;;12.10;45.40;;;;;;6271115;22;20004;-62
2021/03/20 13:20:31;;;;;;;8.27;2.40;;;12.10;45.20;;;;;;6269359;22;20053;-62
2021/03/20 13:22:57;;;;;;;7.32;2.80;;;12.60;45.80;;;;;;6272001;22;20392;-62
2021/03/20 13:25:27;;;;;;;10.43;2.58;;;12.60;46.20;;;;;;6269750;22;20431;-63
2021/03/20 13:27:53;;;;;;;;;;;12.60;45.90;;;;;;6245650;22;20031;-62
2021/03/20 13:30:28;;;;;;;8.90;3.00;;;12.30;45.30;;;;;;6271009;22;19903;-63
2021/03/20 13:32:55;;;;;;;8.57;2.97;;;12.20;47.90;;;;;;6272153;22;20000;-62